Time;durP1;ratioP1;P1;durP2;ratioP2;P2;SDS_P1;SDS_P2;PMS_P1;PMS_P2;Temp;Humidity;BMP_temperature;BMP_pressure;BME280_temperature;BME280_humidity;BME280_pressure;Samples;Min_cycle;Max_cycle;Signal;HPM_P1;HPM_P2
2023/01/10 00:01:59;;;;;;;2.57;2.07;;;16.70;63.70;17.70;100379.00;;;;4990371;28;20168;-47
2023/01/10 00:04:25;;;;;;;2.70;2.10;;;16.70;63.60;17.70;100387.00;;;;4972847;28;20187;-46
2023/01/10 00:06:51;;;;;;;3.37;2.03;;;16.60;63.70;17.70;100394.00;;;;4988154;28;20315;-46
2023/01/10 00:09:17;;;;;;;2.47;1.80;;;16.60;63.60;17.70;100392.00;;;;4989472;28;20581;-44
2023/01/10 00:14:28;;;;;;;2.70;1.93;;;16.60;63.50;17.30;100393.00;;;;4989478;28;20183;-48
2023/01/10 00:16:53;;;;;;;4.40;2.20;;;16.50;63.40;17.60;100426.00;;;;4989099;28;20298;-46
2023/01/10 00:19:19;;;;;;;3.70;2.20;;;16.60;63.50;17.60;100361.00;;;;4989274;28;20196;-46
2023/01/10 00:21:45;;;;;;;2.83;2.30;;;16.50;63.30;17.50;100429.00;;;;4988884;28;20266;-46
2023/01/10 00:24:22;;;;;;;2.33;1.97;;;16.50;63.40;17.50;100444.00;;;;4988797;28;20180;-48
2023/01/10 00:26:53;;;;;;;3.37;2.20;;;16.50;63.40;17.50;100446.00;;;;4989833;28;20683;-47
2023/01/10 00:29:36;;;;;;;2.53;2.00;;;16.50;63.40;17.50;100456.00;;;;4990013;28;20161;-45
2023/01/10 00:32:02;;;;;;;2.73;2.20;;;16.50;63.30;17.40;100456.00;;;;4987973;28;20167;-45
2023/01/10 00:34:28;;;;;;;2.43;2.10;;;16.40;63.20;17.40;100464.00;;;;4991967;28;20173;-46
2023/01/10 00:36:54;;;;;;;3.30;2.13;;;16.40;63.20;17.40;100476.00;;;;4989377;28;20199;-47
2023/01/10 00:39:20;;;;;;;2.33;2.10;;;16.40;63.30;17.40;100403.00;;;;4988744;28;20177;-45
2023/01/10 00:44:30;;;;;;;2.50;2.00;;;16.40;63.10;17.40;100489.00;;;;4988896;28;20172;-46
2023/01/10 00:46:56;;;;;;;3.60;2.13;;;16.40;63.10;17.10;100494.00;;;;4989580;28;20200;-46
2023/01/10 00:49:22;;;;;;;2.13;1.93;;;16.40;63.20;17.30;100505.00;;;;4988171;28;20173;-45
2023/01/10 00:51:47;;;;;;;2.93;1.93;;;16.30;63.00;17.30;100499.00;;;;4987557;28;20227;-47
2023/01/10 00:54:13;;;;;;;2.33;2.10;;;16.30;63.10;17.30;100497.00;;;;4988714;28;20184;-46
2023/01/10 00:56:39;;;;;;;3.03;2.20;;;16.30;63.10;17.30;100501.00;;;;4988450;28;20196;-48
2023/01/10 00:59:05;;;;;;;2.90;1.90;;;16.40;63.10;17.30;100427.00;;;;4988324;28;20211;-45
2023/01/10 01:01:31;;;;;;;3.13;2.10;;;16.30;63.10;17.30;100508.00;;;;4987769;28;20556;-46
2023/01/10 01:03:58;;;;;;;4.30;2.37;;;16.20;63.10;17.30;100514.00;;;;4988356;28;20777;-47
2023/01/10 01:06:24;;;;;;;2.83;2.10;;;16.20;62.80;17.30;100439.00;;;;4989413;28;20685;-46
2023/01/10 01:08:50;;;;;;;2.30;2.00;;;16.30;62.80;17.30;100527.00;;;;4988627;28;20168;-47
2023/01/10 01:11:16;;;;;;;3.27;2.00;;;16.20;62.60;17.30;100534.00;;;;4988374;28;20526;-47
2023/01/10 01:13:42;;;;;;;2.10;1.90;;;16.20;62.50;17.30;100540.00;;;;4988198;28;20251;-47
2023/01/10 01:16:07;;;;;;;3.00;2.00;;;16.20;62.50;17.30;100546.00;;;;4972191;28;20192;-46
2023/01/10 01:18:33;;;;;;;3.03;2.00;;;16.20;62.60;17.30;100545.00;;;;4989226;28;20326;-50
2023/01/10 01:21:02;;;;;;;2.57;1.90;;;16.20;62.60;17.30;100555.00;;;;4988538;28;20203;-47
2023/01/10 01:23:28;;;;;;;1.93;1.73;;;16.20;62.60;17.30;100549.00;;;;4988389;28;20184;-46
2023/01/10 01:25:54;;;;;;;2.60;2.00;;;16.20;62.70;17.30;100568.00;;;;4988036;28;20231;-46
2023/01/10 01:28:23;;;;;;;3.00;1.90;;;16.20;62.70;17.30;100566.00;;;;4987942;28;20579;-46
2023/01/10 01:30:49;;;;;;;2.90;2.10;;;16.20;62.70;17.20;100562.00;;;;4988280;28;20173;-46
2023/01/10 01:33:14;;;;;;;2.93;1.93;;;16.10;62.50;17.20;100571.00;;;;4987315;28;20664;-47
2023/01/10 01:35:44;;;;;;;3.00;1.97;;;16.10;62.50;17.20;100572.00;;;;4987873;28;20193;-45
2023/01/10 01:38:10;;;;;;;3.90;2.20;;;16.20;62.70;17.20;100486.00;;;;4987878;28;20176;-46
2023/01/10 01:40:40;;;;;;;3.13;2.00;;;16.10;62.50;17.20;100536.00;;;;4988030;28;20271;-46
2023/01/10 01:43:25;;;;;;;3.00;2.10;;;16.10;62.50;17.20;100512.00;;;;4988039;28;20187;-46
2023/01/10 01:45:51;;;;;;;3.57;2.07;;;16.10;62.50;17.20;100602.00;;;;4988442;28;20276;-46
2023/01/10 01:48:27;;;;;;;3.27;1.97;;;16.10;62.70;17.20;100601.00;;;;4971879;28;20216;-46
2023/01/10 01:51:06;;;;;;;2.80;1.90;;;16.10;62.50;17.20;100514.00;;;;4988086;28;20196;-47
2023/01/10 01:53:51;;;;;;;3.53;2.20;;;16.00;62.50;17.20;100535.00;;;;4971637;28;20267;-46
2023/01/10 01:56:22;;;;;;;2.87;2.17;;;16.00;62.40;17.10;100531.00;;;;4987785;28;20273;-45
2023/01/10 01:59:05;;;;;;;2.97;2.23;;;16.00;62.40;16.90;100615.00;;;;4987649;28;20217;-46
2023/01/10 02:01:31;;;;;;;3.07;2.00;;;16.00;62.50;17.10;100558.00;;;;4987894;28;20252;-46
2023/01/10 02:04:12;;;;;;;3.00;2.10;;;16.00;62.30;17.10;100548.00;;;;4975111;28;20615;-45
2023/01/10 02:06:37;;;;;;;3.50;2.17;;;16.00;62.40;17.10;100618.00;;;;4991497;28;20234;-46
2023/01/10 02:09:45;;;;;;;3.67;2.20;;;16.00;62.30;17.10;100624.00;;;;4996437;28;20622;-45
2023/01/10 02:12:12;;;;;;;3.07;2.20;;;15.90;62.30;17.00;100629.00;;;;4983178;28;20184;-46
2023/01/10 02:14:38;;;;;;;2.93;2.20;;;15.90;62.30;17.00;100641.00;;;;4998734;28;20268;-45
2023/01/10 02:17:04;;;;;;;2.47;2.00;;;15.90;62.30;17.00;100634.00;;;;4991573;28;20267;-45
2023/01/10 02:19:52;;;;;;;2.53;2.13;;;15.90;62.30;17.00;100633.00;;;;4991555;28;20200;-47
2023/01/10 02:23:08;;;;;;;2.83;2.10;;;15.90;62.30;17.00;100629.00;;;;5007453;28;20183;-45
2023/01/10 02:26:14;;;;;;;2.80;2.00;;;15.90;62.30;17.00;100640.00;;;;4991350;28;20274;-45
2023/01/10 02:29:21;;;;;;;2.43;1.90;;;15.90;62.30;16.90;100629.00;;;;4992326;28;20267;-45
2023/01/10 02:32:24;;;;;;;3.33;2.10;;;15.90;62.30;16.90;100652.00;;;;4991142;28;20156;-46
2023/01/10 02:35:28;;;;;;;3.30;2.00;;;15.80;62.20;16.90;100571.00;;;;5007059;28;20171;-47
2023/01/10 02:38:03;;;;;;;2.77;1.90;;;15.80;62.20;16.90;100572.00;;;;4969661;28;20200;-45
2023/01/10 02:41:14;;;;;;;3.17;2.23;;;15.80;62.30;16.90;100659.00;;;;4988126;28;20628;-46
2023/01/10 02:44:12;;;;;;;3.33;2.20;;;15.80;62.20;16.80;100657.00;;;;4991937;28;20161;-45
2023/01/10 02:46:37;;;;;;;2.83;2.00;;;15.80;62.30;16.80;100660.00;;;;4979981;28;20326;-46
2023/01/10 02:49:03;;;;;;;2.57;2.00;;;15.80;62.20;16.80;100654.00;;;;4990893;28;20263;-46
2023/01/10 02:51:32;;;;;;;2.77;2.10;;;15.70;62.10;16.80;100667.00;;;;4990022;28;20168;-46
2023/01/10 02:54:19;;;;;;;4.27;2.07;;;15.70;62.20;16.80;100668.00;;;;4990460;28;20168;-46
2023/01/10 02:57:19;;;;;;;4.10;2.40;;;15.70;62.10;16.80;100661.00;;;;4990375;28;20243;-45
2023/01/10 03:00:16;;;;;;;3.47;2.20;;;15.70;62.10;16.80;100599.00;;;;4991693;28;20161;-46
2023/01/10 03:03:08;;;;;;;3.63;2.40;;;15.70;62.20;16.50;100672.00;;;;4992955;28;20669;-45
2023/01/10 03:06:15;;;;;;;3.80;2.20;;;15.70;62.20;16.70;100586.00;;;;5006588;28;20203;-45
2023/01/10 03:09:05;;;;;;;3.53;2.30;;;15.60;62.10;16.50;100606.00;;;;4990329;28;20183;-45
2023/01/10 03:11:39;;;;;;;3.50;2.10;;;15.60;62.10;16.70;100673.00;;;;4990460;28;20251;-46
2023/01/10 03:14:31;;;;;;;2.93;2.23;;;15.60;62.10;16.70;100596.00;;;;4974986;28;20171;-46
2023/01/10 03:17:03;;;;;;;4.17;2.43;;;15.60;61.90;16.70;100687.00;;;;4958111;28;20224;-46
2023/01/10 03:19:34;;;;;;;3.07;2.20;;;15.60;62.00;16.70;100694.00;;;;4991373;28;20184;-45
2023/01/10 03:22:01;;;;;;;3.37;2.23;;;15.60;62.10;16.70;100700.00;;;;4989839;28;20164;-45
2023/01/10 03:24:32;;;;;;;3.57;1.97;;;15.60;62.10;16.70;100626.00;;;;4990307;28;20160;-46
2023/01/10 03:27:26;;;;;;;3.60;2.00;;;15.60;62.10;16.40;100715.00;;;;4989664;28;20701;-46
2023/01/10 03:30:05;;;;;;;2.67;2.00;;;15.60;62.20;16.60;100626.00;;;;4989752;28;20204;-44
2023/01/10 03:32:31;;;;;;;3.73;2.17;;;15.60;62.20;16.60;100717.00;;;;4989222;28;20164;-47
2023/01/10 03:34:58;;;;;;;2.87;2.20;;;15.60;62.10;16.60;100740.00;;;;4989438;28;20200;-46
2023/01/10 03:37:52;;;;;;;3.13;2.00;;;15.50;62.00;16.60;100634.00;;;;4989987;28;20666;-46
2023/01/10 03:40:32;;;;;;;3.70;2.33;;;15.50;62.20;16.50;100733.00;;;;4990036;28;20176;-46
2023/01/10 03:45:58;;;;;;;4.20;2.10;;;15.60;62.00;16.60;100648.00;;;;4987925;28;20737;-46
2023/01/10 03:48:26;;;;;;;3.70;2.07;;;15.50;62.00;16.50;100641.00;;;;5009204;28;20233;-47
2023/01/10 03:50:51;;;;;;;2.90;2.10;;;15.50;61.90;16.50;100637.00;;;;5008676;28;20180;-47
2023/01/10 03:53:17;;;;;;;3.90;2.13;;;15.50;62.00;16.50;100663.00;;;;5008207;28;20174;-45
2023/01/10 03:55:43;;;;;;;3.33;2.10;;;15.50;62.40;16.50;100639.00;;;;5008528;28;20238;-44
2023/01/10 03:58:08;;;;;;;4.17;2.20;;;15.60;62.30;16.50;100650.00;;;;5008300;28;20222;-46
2023/01/10 04:00:34;;;;;;;5.43;2.10;;;15.60;62.30;16.50;100755.00;;;;5009389;28;20263;-45
2023/01/10 04:03:00;;;;;;;4.30;2.20;;;15.50;62.50;16.50;100655.00;;;;5007999;28;20195;-45
2023/01/10 04:05:26;;;;;;;7.10;2.60;;;15.60;62.80;16.50;100754.00;;;;5008660;28;20207;-44
2023/01/10 04:07:51;;;;;;;6.30;2.37;;;15.50;63.10;16.50;100763.00;;;;5008174;28;20230;-45
2023/01/10 04:10:17;;;;;;;4.50;2.30;;;15.60;63.30;16.50;100684.00;;;;5009783;28;20326;-45
2023/01/10 04:12:43;;;;;;;6.10;1.97;;;15.50;63.10;16.20;100763.00;;;;5007718;28;20325;-46
2023/01/10 04:15:09;;;;;;;4.13;2.00;;;15.50;63.10;16.50;100770.00;;;;5008384;28;20195;-46
2023/01/10 04:17:35;;;;;;;2.63;1.90;;;15.50;64.00;16.50;100779.00;;;;5007640;28;20233;-45
2023/01/10 04:20:01;;;;;;;3.33;2.00;;;15.50;63.20;16.50;100714.00;;;;5008167;28;20195;-45
2023/01/10 04:22:27;;;;;;;2.63;2.00;;;15.50;63.30;16.20;100791.00;;;;5007125;28;20175;-45
2023/01/10 04:24:53;;;;;;;2.70;1.93;;;15.40;63.20;16.50;100696.00;;;;4991457;28;20180;-46
2023/01/10 04:27:19;;;;;;;4.50;2.00;;;15.40;63.20;16.40;100785.00;;;;5008345;28;20366;-46
2023/01/10 04:29:45;;;;;;;2.63;1.93;;;15.40;63.30;16.40;100708.00;;;;5008851;28;20213;-46
2023/01/10 04:32:11;;;;;;;2.33;2.03;;;15.50;63.30;16.40;100700.00;;;;5007857;28;20193;-46
2023/01/10 04:34:36;;;;;;;2.90;2.00;;;15.40;63.20;16.40;100787.00;;;;5006739;28;20671;-45
2023/01/10 04:37:02;;;;;;;3.13;1.90;;;15.40;63.30;16.40;100787.00;;;;5008233;28;20168;-46
2023/01/10 04:39:28;;;;;;;1.97;1.70;;;15.40;63.20;16.40;100796.00;;;;4990006;28;20558;-46
2023/01/10 04:41:54;;;;;;;3.77;1.70;;;15.40;63.30;16.40;100790.00;;;;5007312;28;20529;-47
2023/01/10 04:44:19;;;;;;;2.20;1.90;;;15.30;63.20;16.40;100784.00;;;;4990204;28;20198;-46
2023/01/10 04:46:45;;;;;;;2.53;2.03;;;15.40;63.40;16.40;100796.00;;;;4991731;28;20207;-45
2023/01/10 04:49:11;;;;;;;4.33;2.10;;;15.30;63.30;16.40;100796.00;;;;5008862;28;20176;-46
2023/01/10 04:51:37;;;;;;;3.30;1.80;;;15.40;63.50;16.40;100795.00;;;;5008240;28;20175;-45
2023/01/10 04:54:02;;;;;;;4.30;2.00;;;15.30;63.30;16.40;100805.00;;;;4992144;28;20171;-45
2023/01/10 04:56:28;;;;;;;2.63;1.83;;;15.40;63.40;16.30;100792.00;;;;5009540;28;20689;-45
2023/01/10 04:58:54;;;;;;;4.17;2.00;;;15.30;63.40;16.30;100810.00;;;;5008720;28;20583;-45
2023/01/10 05:01:22;;;;;;;3.13;1.97;;;15.30;63.50;16.30;100805.00;;;;5008468;28;20246;-44
2023/01/10 05:03:50;;;;;;;2.93;1.87;;;15.30;63.60;16.10;100799.00;;;;5008536;28;20176;-45
2023/01/10 05:06:16;;;;;;;5.90;2.20;;;15.30;63.60;16.30;100825.00;;;;4988472;28;20203;-45
2023/01/10 05:08:42;;;;;;;3.83;2.10;;;15.30;63.60;16.30;100807.00;;;;4989189;28;20169;-45
2023/01/10 05:11:08;;;;;;;2.93;2.00;;;15.30;63.60;16.30;100815.00;;;;4989251;28;20242;-45
2023/01/10 05:13:33;;;;;;;3.57;2.20;;;15.30;63.60;16.30;100817.00;;;;4973136;28;20172;-47
2023/01/10 05:15:59;;;;;;;6.47;2.10;;;15.40;63.70;16.30;100741.00;;;;4973018;28;20298;-45
2023/01/10 05:18:26;;;;;;;9.17;2.30;;;15.40;63.70;16.30;100826.00;;;;4972915;28;20184;-45
2023/01/10 05:20:52;;;;;;;5.93;2.20;;;15.30;63.70;16.30;100828.00;;;;4973030;28;20160;-47
2023/01/10 05:23:17;;;;;;;6.70;2.30;;;15.30;63.60;16.30;100834.00;;;;4956538;28;20668;-45
2023/01/10 05:25:43;;;;;;;11.93;2.70;;;15.30;63.70;16.30;100833.00;;;;4956518;28;20193;-45
2023/01/10 05:28:09;;;;;;;17.07;3.23;;;15.30;63.90;16.30;100834.00;;;;4956800;28;20244;-45
2023/01/10 05:30:34;;;;;;;17.77;3.27;;;15.30;64.00;16.20;100843.00;;;;4971972;28;20259;-44
2023/01/10 05:33:03;;;;;;;15.67;3.37;;;15.30;64.00;16.30;100760.00;;;;4972425;28;20176;-46
2023/01/10 05:35:29;;;;;;;16.90;3.63;;;15.20;64.00;16.20;100821.00;;;;4973129;28;20238;-46
2023/01/10 05:37:54;;;;;;;17.63;3.40;;;15.30;64.00;16.20;100839.00;;;;4977125;28;20180;-48
2023/01/10 05:40:20;;;;;;;19.43;4.23;;;15.20;64.00;16.20;100853.00;;;;4976946;28;20268;-46
2023/01/10 05:42:46;;;;;;;13.73;3.60;;;15.20;64.10;16.20;100839.00;;;;4993256;28;20545;-47
2023/01/10 05:45:12;;;;;;;14.30;3.50;;;15.20;64.10;15.90;100707.00;;;;4993100;28;20722;-44
2023/01/10 05:47:37;;;;;;;11.20;3.40;;;15.20;65.20;16.20;100856.00;;;;4977000;28;20781;-46
2023/01/10 05:50:04;;;;;;;15.93;3.27;;;15.20;64.50;16.20;100850.00;;;;4960398;28;20176;-48
2023/01/10 05:52:29;;;;;;;11.60;3.40;;;15.20;64.30;16.10;100865.00;;;;5011452;28;20230;-49
2023/01/10 05:54:55;;;;;;;13.60;3.33;;;15.20;64.30;16.10;100868.00;;;;5011648;28;20199;-47
2023/01/10 05:57:23;;;;;;;12.83;2.90;;;15.20;64.30;16.10;100875.00;;;;5012470;28;20171;-48
2023/01/10 05:59:50;;;;;;;11.80;2.97;;;15.20;64.30;16.10;100880.00;;;;5017707;28;20171;-44
2023/01/10 06:02:15;;;;;;;10.00;2.97;;;15.20;64.30;16.10;100865.00;;;;5019463;28;20609;-48
2023/01/10 06:04:41;;;;;;;11.17;3.20;;;15.10;64.20;16.10;100856.00;;;;5011786;28;20250;-45
2023/01/10 06:07:07;;;;;;;7.03;3.10;;;15.10;64.20;16.10;100864.00;;;;5011654;28;20220;-46
2023/01/10 06:09:33;;;;;;;8.50;2.70;;;15.10;64.30;16.10;100792.00;;;;5011789;28;20179;-46
2023/01/10 06:11:58;;;;;;;7.77;2.93;;;15.10;64.10;16.10;100802.00;;;;5011811;28;20179;-46
2023/01/10 06:14:24;;;;;;;6.60;2.70;;;15.10;64.20;16.10;100810.00;;;;5015358;28;20297;-45
2023/01/10 06:16:50;;;;;;;10.87;3.17;;;15.10;64.10;16.10;100901.00;;;;5015633;28;20285;-45
2023/01/10 06:19:15;;;;;;;9.63;2.70;;;15.10;64.20;16.10;100903.00;;;;5014634;28;20201;-46
2023/01/10 06:21:41;;;;;;;9.60;2.97;;;15.10;64.20;16.10;100921.00;;;;5030558;28;20202;-47
2023/01/10 06:24:07;;;;;;;7.67;3.03;;;15.10;64.20;16.00;100920.00;;;;5016730;28;20179;-47
2023/01/10 06:26:33;;;;;;;6.70;2.77;;;15.10;64.30;16.00;100919.00;;;;5022376;28;20198;-45
2023/01/10 06:28:59;;;;;;;7.57;2.97;;;15.00;64.20;16.00;100915.00;;;;5022186;28;20621;-45
2023/01/10 06:31:25;;;;;;;8.13;2.93;;;15.10;64.30;16.00;100838.00;;;;5035014;28;20608;-44
2023/01/10 06:33:51;;;;;;;8.33;2.70;;;15.10;64.30;16.00;100920.00;;;;5031149;28;20185;-46
2023/01/10 06:36:17;;;;;;;5.13;2.73;;;15.00;64.20;16.00;100844.00;;;;5031086;28;20644;-45
2023/01/10 06:38:42;;;;;;;6.03;2.50;;;15.00;64.30;16.00;100926.00;;;;5031303;28;20229;-45
2023/01/10 06:41:14;;;;;;;5.10;2.47;;;15.00;64.50;16.00;100938.00;;;;5031086;28;20186;-44
2023/01/10 06:43:44;;;;;;;9.43;2.67;;;15.00;64.50;16.00;100887.00;;;;5014950;28;20194;-47
2023/01/10 06:46:15;;;;;;;5.50;2.70;;;15.00;64.60;16.00;100862.00;;;;5031059;28;20191;-46
2023/01/10 06:48:45;;;;;;;4.20;2.50;;;15.00;64.50;16.00;100953.00;;;;5030191;28;20163;-47
2023/01/10 06:51:14;;;;;;;4.47;2.73;;;15.00;64.60;15.90;100947.00;;;;5030138;28;20163;-44
2023/01/10 06:53:40;;;;;;;5.60;2.60;;;15.00;64.60;15.90;100868.00;;;;5029878;28;20186;-45
2023/01/10 06:56:08;;;;;;;5.13;2.60;;;14.90;64.40;15.90;100895.00;;;;5013445;28;20191;-45
2023/01/10 06:58:34;;;;;;;6.00;2.50;;;14.90;64.30;15.90;100957.00;;;;5014612;28;20181;-46
2023/01/10 07:01:00;;;;;;;5.03;2.50;;;14.90;64.50;15.90;100900.00;;;;5014465;28;20178;-47
2023/01/10 07:03:26;;;;;;;5.87;2.50;;;14.90;64.30;15.70;100976.00;;;;5030372;28;20175;-45
2023/01/10 07:05:52;;;;;;;4.73;2.50;;;15.00;64.50;15.90;100962.00;;;;5030758;28;20187;-44
2023/01/10 07:08:17;;;;;;;4.93;2.37;;;14.90;64.50;15.80;100968.00;;;;5030557;28;20264;-44
2023/01/10 07:10:43;;;;;;;2.77;1.90;;;14.90;64.50;15.90;100975.00;;;;5030904;28;20171;-44
2023/01/10 07:13:09;;;;;;;4.90;2.70;;;14.90;64.50;15.90;100980.00;;;;5014046;28;20551;-48
2023/01/10 07:15:35;;;;;;;5.00;2.60;;;14.90;64.60;15.90;100986.00;;;;5032088;28;20253;-45
2023/01/10 07:18:00;;;;;;;5.27;2.40;;;14.90;64.60;15.80;100902.00;;;;5030921;28;20210;-45
2023/01/10 07:20:27;;;;;;;3.43;2.13;;;14.90;64.60;15.80;100995.00;;;;5014311;28;20183;-47
2023/01/10 07:22:57;;;;;;;4.57;2.20;;;14.90;64.60;15.50;100983.00;;;;5030429;28;20325;-46
2023/01/10 07:25:24;;;;;;;4.50;2.10;;;14.80;64.60;15.80;100908.00;;;;5030596;28;20198;-46
2023/01/10 07:27:49;;;;;;;5.47;2.30;;;14.90;64.60;15.80;100993.00;;;;5014295;28;20579;-46
2023/01/10 07:30:15;;;;;;;5.47;2.40;;;14.90;64.60;15.80;101000.00;;;;5030510;28;20179;-45
2023/01/10 07:32:41;;;;;;;4.80;2.30;;;14.80;64.70;15.80;101003.00;;;;4997375;28;20222;-45
2023/01/10 07:35:07;;;;;;;3.00;2.20;;;14.80;64.50;15.80;101012.00;;;;5029942;28;20245;-46
2023/01/10 07:37:33;;;;;;;5.87;2.60;;;14.80;64.60;15.80;100998.00;;;;5030713;28;20198;-45
2023/01/10 07:39:59;;;;;;;4.43;2.40;;;14.80;64.60;15.80;101009.00;;;;5031181;28;20175;-45
2023/01/10 07:42:25;;;;;;;3.70;2.40;;;14.80;64.60;15.70;101021.00;;;;5030903;28;20245;-47
2023/01/10 07:44:50;;;;;;;3.57;2.20;;;14.80;64.70;15.70;101022.00;;;;5029932;28;20611;-47
2023/01/10 07:47:16;;;;;;;3.80;2.07;;;14.80;64.60;15.60;101017.00;;;;5013953;28;20202;-45
2023/01/10 07:49:42;;;;;;;5.67;2.33;;;14.80;64.60;15.70;101036.00;;;;5013580;28;20241;-45
2023/01/10 07:52:08;;;;;;;4.30;2.13;;;14.80;64.60;15.70;100970.00;;;;5013204;28;20221;-46
2023/01/10 07:54:34;;;;;;;3.43;2.20;;;14.80;64.60;15.70;101032.00;;;;5030044;28;20171;-47
2023/01/10 07:57:00;;;;;;;3.30;2.40;;;14.80;64.60;15.70;101042.00;;;;5029930;28;20605;-45
2023/01/10 07:59:26;;;;;;;4.30;2.37;;;14.80;64.70;15.70;101034.00;;;;5029024;28;20174;-46
2023/01/10 08:01:52;;;;;;;3.80;2.20;;;14.80;64.60;15.20;101040.00;;;;5013079;28;20179;-45
2023/01/10 08:04:19;;;;;;;2.77;1.90;;;14.70;64.60;15.70;101044.00;;;;5013770;28;20183;-46
2023/01/10 08:06:44;;;;;;;2.80;2.07;;;14.80;64.70;15.70;100977.00;;;;5013200;28;20238;-46
2023/01/10 08:09:10;;;;;;;3.50;2.30;;;14.70;64.60;15.70;101047.00;;;;5030135;28;20202;-46
2023/01/10 08:11:36;;;;;;;3.57;2.20;;;14.70;64.60;15.70;101055.00;;;;5031351;28;20687;-46
2023/01/10 08:14:02;;;;;;;4.03;2.23;;;14.70;64.60;15.70;101053.00;;;;5030125;28;20670;-47
2023/01/10 08:16:27;;;;;;;3.40;2.20;;;14.70;64.70;15.70;101054.00;;;;5013142;28;20206;-45
2023/01/10 08:18:53;;;;;;;2.93;2.10;;;14.70;64.70;15.70;100976.00;;;;5029863;28;20198;-45
2023/01/10 08:21:25;;;;;;;3.00;2.00;;;14.70;64.80;15.60;101071.00;;;;5067604;28;20559;-44
2023/01/10 08:23:52;;;;;;;4.03;2.47;;;14.70;64.80;15.60;101072.00;;;;5048709;28;20178;-44
2023/01/10 08:26:18;;;;;;;3.03;2.37;;;14.70;64.80;15.60;101073.00;;;;5047020;28;20265;-47
2023/01/10 08:28:44;;;;;;;3.50;2.03;;;14.70;64.80;15.60;101073.00;;;;5048453;28;20204;-46
2023/01/10 08:31:10;;;;;;;3.57;2.20;;;14.70;64.70;15.60;101073.00;;;;5047915;28;20181;-45
2023/01/10 08:33:39;;;;;;;2.60;2.03;;;14.70;64.80;15.60;101077.00;;;;5047737;28;20554;-44
2023/01/10 08:36:05;;;;;;;2.70;2.00;;;14.70;64.90;15.60;101085.00;;;;5047203;28;20885;-47
2023/01/10 08:38:31;;;;;;;3.77;2.20;;;14.60;64.90;15.60;101083.00;;;;5047259;28;20249;-47
2023/01/10 08:40:59;;;;;;;4.03;2.17;;;14.70;64.90;15.70;101084.00;;;;5044544;28;20554;-47
2023/01/10 08:43:25;;;;;;;3.07;2.20;;;14.70;65.00;15.60;101071.00;;;;5049514;28;20183;-47
2023/01/10 08:45:51;;;;;;;3.97;2.53;;;14.70;65.10;15.60;101083.00;;;;5061760;28;20254;-46
2023/01/10 08:48:16;;;;;;;3.63;2.30;;;14.70;65.30;15.40;101080.00;;;;5055876;28;20170;-47
2023/01/10 08:50:42;;;;;;;4.77;2.30;;;14.70;65.30;15.70;101080.00;;;;5047240;28;20174;-47
2023/01/10 08:53:08;;;;;;;4.27;2.37;;;14.70;65.30;15.70;101085.00;;;;5046068;28;20175;-46
2023/01/10 08:55:34;;;;;;;4.73;2.13;;;14.70;65.40;15.60;101082.00;;;;5046621;28;20221;-47
2023/01/10 08:58:00;;;;;;;5.10;2.60;;;14.70;65.50;15.70;101086.00;;;;5046768;28;20204;-47
2023/01/10 09:00:27;;;;;;;4.27;2.40;;;14.70;66.50;15.70;101094.00;;;;5046406;28;20302;-47
2023/01/10 09:02:53;;;;;;;7.90;2.50;;;14.70;66.80;15.70;101088.00;;;;5046027;28;20630;-45
2023/01/10 09:05:18;;;;;;;3.70;2.20;;;14.60;66.20;15.70;101083.00;;;;5047084;28;20190;-45
2023/01/10 09:07:45;;;;;;;3.73;2.40;;;14.70;66.90;15.70;101090.00;;;;5046583;28;20178;-44
2023/01/10 09:10:11;;;;;;;5.83;2.13;;;14.70;67.20;15.70;101102.00;;;;5046331;28;20171;-45
2023/01/10 09:12:55;;;;;;;3.67;2.20;;;14.70;66.80;15.70;101088.00;;;;5045893;28;20636;-45
2023/01/10 09:15:22;;;;;;;7.03;2.40;;;14.70;66.50;15.70;101089.00;;;;5044382;28;20205;-46
2023/01/10 09:17:48;;;;;;;4.73;2.27;;;14.60;66.50;15.70;101095.00;;;;5044773;28;20231;-47
2023/01/10 09:20:15;;;;;;;6.53;2.30;;;14.70;66.40;15.60;101088.00;;;;5046030;28;20206;-44
2023/01/10 09:22:41;;;;;;;4.67;2.20;;;14.60;66.20;15.60;101087.00;;;;5044715;28;20229;-44
2023/01/10 09:25:07;;;;;;;5.77;2.47;;;14.60;66.10;15.60;101103.00;;;;5046118;28;20198;-44
2023/01/10 09:27:33;;;;;;;4.23;2.17;;;14.70;66.10;15.60;101108.00;;;;5046233;28;20174;-45
2023/01/10 09:29:58;;;;;;;2.50;1.90;;;14.70;66.00;15.60;101089.00;;;;5046021;28;20174;-45
2023/01/10 09:32:24;;;;;;;3.30;2.20;;;14.70;65.90;15.60;101104.00;;;;5034388;28;20864;-46
2023/01/10 09:34:50;;;;;;;3.03;2.00;;;14.70;65.80;15.60;101107.00;;;;5032784;28;20199;-45
2023/01/10 09:37:16;;;;;;;3.30;1.90;;;14.70;65.80;15.60;101103.00;;;;5032845;28;20213;-44
2023/01/10 09:39:42;;;;;;;3.37;1.93;;;14.70;65.80;15.60;101103.00;;;;5032685;28;20672;-46
2023/01/10 09:42:27;;;;;;;3.20;2.20;;;14.60;66.10;15.60;101102.00;;;;5031834;28;20210;-46
2023/01/10 09:45:20;;;;;;;4.77;2.17;;;14.70;66.40;15.60;101091.00;;;;5032421;28;20205;-45
2023/01/10 09:47:53;;;;;;;3.57;2.20;;;14.70;66.50;15.60;101123.00;;;;5031522;28;20203;-46
2023/01/10 09:50:47;;;;;;;4.73;2.30;;;14.90;66.40;15.70;101113.00;;;;5031133;28;20594;-46
2023/01/10 09:53:24;;;;;;;4.43;2.23;;;14.90;66.20;15.70;101119.00;;;;5029976;28;20194;-45
2023/01/10 09:55:55;;;;;;;6.57;2.30;;;15.00;66.70;15.80;101112.00;;;;5031155;28;20194;-46
2023/01/10 09:58:28;;;;;;;5.00;2.10;;;15.20;66.20;15.80;101124.00;;;;5031217;28;20171;-46
2023/01/10 10:01:36;;;;;;;3.17;2.10;;;15.20;66.70;15.90;101104.00;;;;5031134;28;20725;-46
2023/01/10 10:04:29;;;;;;;6.73;2.17;;;15.20;66.10;15.90;101114.00;;;;5016650;28;20201;-45
2023/01/10 10:06:55;;;;;;;5.43;2.33;;;15.30;66.00;15.90;101112.00;;;;5031301;28;20289;-46
2023/01/10 10:09:24;;;;;;;3.50;2.00;;;15.30;65.90;16.00;101087.00;;;;5031117;28;20195;-45
2023/01/10 10:12:27;;;;;;;5.87;2.00;;;15.30;65.80;16.00;101110.00;;;;5030511;28;20187;-46
2023/01/10 10:15:04;;;;;;;6.40;2.40;;;15.30;65.80;16.00;101110.00;;;;5032715;28;20178;-47
2023/01/10 10:17:40;;;;;;;3.90;2.30;;;15.30;65.80;16.00;101111.00;;;;5032047;28;20402;-46
2023/01/10 10:20:21;;;;;;;3.27;2.10;;;15.30;65.80;16.00;101112.00;;;;5013798;28;20210;-45
2023/01/10 10:23:14;;;;;;;2.67;2.13;;;15.30;65.80;16.00;101101.00;;;;5029533;28;20621;-46
2023/01/10 10:25:55;;;;;;;4.87;2.10;;;15.30;65.80;16.00;101099.00;;;;5029994;28;20241;-48
2023/01/10 10:28:56;;;;;;;5.97;2.37;;;15.30;65.80;16.10;101089.00;;;;5030467;28;20178;-46
2023/01/10 10:32:13;;;;;;;4.07;2.23;;;15.30;65.90;16.00;101091.00;;;;5030133;28;20159;-46
2023/01/10 10:35:15;;;;;;;3.50;2.10;;;15.30;65.90;16.00;101066.00;;;;5025396;28;20871;-45
2023/01/10 10:37:47;;;;;;;3.47;2.17;;;15.30;66.00;16.00;101077.00;;;;5041472;28;20232;-47
2023/01/10 10:40:13;;;;;;;5.17;2.40;;;15.30;66.00;16.00;101076.00;;;;5040166;28;20794;-47
2023/01/10 10:42:42;;;;;;;4.13;2.50;;;15.20;65.90;16.10;101077.00;;;;5038616;28;20206;-46
2023/01/10 10:45:40;;;;;;;5.20;2.30;;;15.20;65.90;16.10;101087.00;;;;5035817;28;20549;-46
2023/01/10 10:48:58;;;;;;;11.57;2.67;;;15.20;66.00;16.10;101089.00;;;;5032772;28;20234;-47
2023/01/10 10:51:35;;;;;;;7.00;2.33;;;15.30;66.10;16.10;101080.00;;;;5030374;28;20159;-46
2023/01/10 10:54:01;;;;;;;5.27;2.23;;;15.20;66.00;16.10;101081.00;;;;5030977;28;20612;-44
2023/01/10 10:56:27;;;;;;;2.90;1.97;;;15.30;66.00;16.10;101072.00;;;;5031931;28;20202;-46
2023/01/10 10:58:55;;;;;;;2.87;2.10;;;15.20;66.00;16.10;101071.00;;;;5031797;28;20187;-46
2023/01/10 11:01:22;;;;;;;3.97;2.00;;;15.20;65.90;16.10;101065.00;;;;5030105;28;20660;-47
2023/01/10 11:04:07;;;;;;;3.57;2.20;;;15.30;66.10;16.10;101049.00;;;;5030617;28;20179;-45
2023/01/10 11:06:33;;;;;;;5.03;2.20;;;15.20;66.00;15.80;101052.00;;;;5030419;28;20195;-45
2023/01/10 11:09:02;;;;;;;2.93;2.07;;;15.20;66.00;16.10;101047.00;;;;5030700;28;20171;-45
2023/01/10 11:11:43;;;;;;;3.83;2.10;;;15.20;66.00;16.10;101042.00;;;;5030138;28;20206;-47
2023/01/10 11:14:09;;;;;;;2.83;2.07;;;15.20;66.00;16.10;101056.00;;;;5030853;28;20167;-46